Time;durP1;ratioP1;P1;durP2;ratioP2;P2;SDS_P1;SDS_P2;PMS_P1;PMS_P2;Temp;Humidity;BMP_temperature;BMP_pressure;BME280_temperature;BME280_humidity;BME280_pressure;Samples;Min_cycle;Max_cycle;Signal;HPM_P1;HPM_P2
2022/10/21 00:01:07;;;;;;;42.03;28.80;;;12.40;99.90;;;;;;5051725;28;20447;-44
2022/10/21 00:03:32;;;;;;;44.92;32.42;;;12.00;99.90;;;;;;5051213;28;20045;-43
2022/10/21 00:05:58;;;;;;;46.33;32.65;;;12.40;99.90;;;;;;5050077;28;20043;-44
2022/10/21 00:08:24;;;;;;;46.47;27.45;;;12.50;99.90;;;;;;5051598;28;20094;-43
2022/10/21 00:10:55;;;;;;;48.63;28.65;;;12.60;99.90;;;;;;5051476;28;20047;-43
2022/10/21 00:13:22;;;;;;;46.90;28.25;;;12.50;99.90;;;;;;5049963;28;20132;-45
2022/10/21 00:15:57;;;;;;;41.45;28.27;;;12.60;99.90;;;;;;5051317;28;20488;-47
2022/10/21 00:18:23;;;;;;;43.60;28.70;;;12.00;99.90;;;;;;5050902;28;20098;-46
2022/10/21 00:20:49;;;;;;;43.15;27.38;;;12.70;99.90;;;;;;5050822;28;20041;-44
2022/10/21 00:23:14;;;;;;;41.72;29.13;;;12.60;99.90;;;;;;5051217;28;20041;-44
2022/10/21 00:25:40;;;;;;;44.75;27.92;;;12.40;99.90;;;;;;5051242;28;20067;-44
2022/10/21 00:28:05;;;;;;;46.33;31.65;;;12.10;99.90;;;;;;5050720;28;20048;-44
2022/10/21 00:30:31;;;;;;;41.25;28.17;;;11.90;99.90;;;;;;5050864;28;20036;-44
2022/10/21 00:32:57;;;;;;;43.67;27.50;;;11.90;99.90;;;;;;5047397;28;20041;-43
2022/10/21 00:35:22;;;;;;;40.38;26.13;;;12.50;99.90;;;;;;5049614;28;20047;-44
2022/10/21 00:37:48;;;;;;;46.75;28.88;;;12.50;99.90;;;;;;5050564;28;20037;-43
2022/10/21 00:40:14;;;;;;;44.25;28.38;;;11.90;99.90;;;;;;5050203;28;20040;-44
2022/10/21 00:42:40;;;;;;;47.55;28.67;;;12.00;99.90;;;;;;5050312;28;20048;-43
2022/10/21 00:45:05;;;;;;;48.72;29.40;;;12.00;99.90;;;;;;5050648;28;20068;-43
2022/10/21 00:47:45;;;;;;;47.90;33.35;;;11.90;99.90;;;;;;5050910;28;20044;-46
2022/10/21 00:50:48;;;;;;;46.42;33.58;;;12.50;99.90;;;;;;5050178;28;20044;-43
2022/10/21 00:53:15;;;;;;;48.75;28.75;;;12.20;99.90;;;;;;5043956;28;20049;-43
2022/10/21 00:55:47;;;;;;;48.03;28.92;;;12.20;99.90;;;;;;5048936;28;20068;-45
2022/10/21 00:58:15;;;;;;;49.42;33.78;;;12.40;99.90;;;;;;5050741;28;20112;-45
2022/10/21 01:00:40;;;;;;;47.95;29.58;;;12.50;99.90;;;;;;5050423;28;20041;-43
2022/10/21 01:03:07;;;;;;;51.35;35.13;;;12.40;99.90;;;;;;5049807;28;20048;-44
2022/10/21 01:05:35;;;;;;;46.75;28.67;;;11.90;99.90;;;;;;5046218;28;20090;-44
2022/10/21 01:08:01;;;;;;;47.60;33.22;;;12.60;99.90;;;;;;5049856;28;20075;-45
2022/10/21 01:10:27;;;;;;;45.65;28.80;;;12.20;99.90;;;;;;5049608;28;20045;-43
2022/10/21 01:13:14;;;;;;;50.42;35.20;;;11.90;99.90;;;;;;5048581;28;20053;-44
2022/10/21 01:15:54;;;;;;;53.80;35.58;;;12.00;99.90;;;;;;5048651;28;20124;-47
2022/10/21 01:18:33;;;;;;;50.05;34.58;;;12.50;99.90;;;;;;5050171;28;20045;-43
2022/10/21 01:21:17;;;;;;;49.90;30.17;;;12.20;99.90;;;;;;5049785;28;20047;-48
2022/10/21 01:24:08;;;;;;;50.80;35.20;;;12.20;99.90;;;;;;5048821;28;20048;-46
2022/10/21 01:26:47;;;;;;;50.08;29.85;;;12.30;99.90;;;;;;5050137;28;20072;-43
2022/10/21 01:29:31;;;;;;;54.35;30.80;;;12.60;99.90;;;;;;5049099;28;20037;-44
2022/10/21 01:32:14;;;;;;;;;;;12.60;99.90;;;;;;5049436;28;20047;-44
2022/10/21 01:34:53;;;;;;;61.10;31.15;;;12.60;99.90;;;;;;5049536;28;20003;-46
2022/10/21 01:37:33;;;;;;;55.25;31.75;;;12.10;99.90;;;;;;5049917;28;20395;-46
2022/10/21 01:40:02;;;;;;;62.90;35.45;;;12.20;99.90;;;;;;5048888;28;20531;-44
2022/10/21 01:42:37;;;;;;;56.47;33.55;;;12.70;99.90;;;;;;5048458;28;20048;-45
2022/10/21 01:45:22;;;;;;;63.13;35.03;;;12.30;99.90;;;;;;5048412;28;20060;-45
2022/10/21 01:48:01;;;;;;;61.80;38.92;;;12.70;99.90;;;;;;5049756;28;20032;-44
2022/10/21 01:50:32;;;;;;;63.88;36.30;;;12.40;99.90;;;;;;5048630;28;20099;-46
2022/10/21 01:53:02;;;;;;;64.10;34.60;;;13.10;99.90;;;;;;5049546;28;20595;-47
2022/10/21 01:55:31;;;;;;;64.72;34.58;;;12.50;99.90;;;;;;5048680;28;20117;-45
2022/10/21 01:58:09;;;;;;;65.70;39.58;;;12.60;99.90;;;;;;5049476;28;20477;-45
2022/10/21 02:00:36;;;;;;;64.20;36.28;;;13.10;99.90;;;;;;5049462;28;20048;-47
2022/10/21 02:03:09;;;;;;;69.05;42.45;;;12.70;99.90;;;;;;5048823;28;20080;-46
2022/10/21 02:05:35;;;;;;;65.78;38.03;;;13.30;99.90;;;;;;5049084;28;20033;-45
2022/10/21 02:08:02;;;;;;;65.93;36.83;;;13.30;99.90;;;;;;5049494;28;20098;-45
2022/10/21 02:10:33;;;;;;;65.57;36.63;;;12.80;99.90;;;;;;5049405;28;20032;-46
2022/10/21 02:13:02;;;;;;;69.68;42.47;;;12.90;99.90;;;;;;5049147;28;20477;-45
2022/10/21 02:15:29;;;;;;;62.17;39.70;;;13.50;99.90;;;;;;5049419;28;20384;-45
2022/10/21 02:18:04;;;;;;;60.78;33.53;;;13.60;99.90;;;;;;5049393;28;20060;-45
2022/10/21 02:20:35;;;;;;;56.80;32.95;;;13.20;99.90;;;;;;5049284;28;20439;-44
2022/10/21 02:23:03;;;;;;;52.80;31.40;;;13.30;99.90;;;;;;5048332;28;20155;-46
2022/10/21 02:25:33;;;;;;;57.10;37.50;;;13.70;99.90;;;;;;5047985;28;20055;-45
2022/10/21 02:27:59;;;;;;;60.78;38.72;;;13.60;99.90;;;;;;5049154;28;20040;-45
2022/10/21 02:30:31;;;;;;;58.67;33.03;;;13.40;99.90;;;;;;5048951;28;20083;-46
2022/10/21 02:33:05;;;;;;;56.58;32.33;;;13.70;99.90;;;;;;5048357;28;20157;-45
2022/10/21 02:35:40;;;;;;;51.88;36.58;;;13.70;99.90;;;;;;5048975;28;20476;-44
2022/10/21 02:38:13;;;;;;;59.63;32.38;;;13.70;99.90;;;;;;5048109;28;20373;-45
2022/10/21 02:40:51;;;;;;;70.53;34.35;;;13.20;99.90;;;;;;5049060;28;20080;-45
2022/10/21 02:43:20;;;;;;;56.30;36.90;;;13.10;99.90;;;;;;5048071;28;20128;-44
2022/10/21 02:45:47;;;;;;;60.65;36.83;;;13.20;99.90;;;;;;5048649;28;20045;-45
2022/10/21 02:48:13;;;;;;;59.40;36.92;;;13.70;99.90;;;;;;5049083;28;20033;-45
2022/10/21 02:50:38;;;;;;;67.60;35.78;;;13.80;99.90;;;;;;5049035;28;20032;-45
2022/10/21 02:53:05;;;;;;;64.35;38.08;;;13.80;99.90;;;;;;5048510;28;20123;-46
2022/10/21 02:55:31;;;;;;;67.63;37.88;;;13.80;99.90;;;;;;5048737;28;20503;-45
2022/10/21 02:57:56;;;;;;;65.28;35.25;;;13.80;99.90;;;;;;5047550;28;20068;-45
2022/10/21 03:00:22;;;;;;;71.57;38.03;;;13.80;99.90;;;;;;5049052;28;20036;-44
2022/10/21 03:02:47;;;;;;;66.47;38.80;;;13.60;99.90;;;;;;5050261;28;20041;-44
2022/10/21 03:05:13;;;;;;;65.38;37.58;;;13.20;99.90;;;;;;5051206;28;20037;-45
2022/10/21 03:07:40;;;;;;;63.67;37.78;;;13.40;99.90;;;;;;5053172;28;20036;-44
2022/10/21 03:10:06;;;;;;;67.95;38.75;;;13.80;99.90;;;;;;5053300;28;20029;-45
2022/10/21 03:12:31;;;;;;;67.88;38.63;;;13.80;99.90;;;;;;5052918;28;20141;-46
2022/10/21 03:14:57;;;;;;;78.85;37.55;;;13.20;99.90;;;;;;5051904;28;20124;-46
2022/10/21 03:17:23;;;;;;;65.25;36.13;;;13.60;99.90;;;;;;5052270;28;20044;-46
2022/10/21 03:19:48;;;;;;;80.53;39.55;;;13.10;99.90;;;;;;5050712;28;20047;-44
2022/10/21 03:22:14;;;;;;;64.53;39.22;;;13.80;99.90;;;;;;5052839;28;20380;-44
2022/10/21 03:24:39;;;;;;;69.95;39.33;;;13.50;99.90;;;;;;5052788;28;20488;-45
2022/10/21 03:27:05;;;;;;;73.18;35.05;;;13.60;99.90;;;;;;5052843;28;20533;-46
2022/10/21 03:29:31;;;;;;;69.03;38.30;;;13.70;99.90;;;;;;5034193;28;20037;-45
2022/10/21 03:31:56;;;;;;;71.45;37.67;;;13.20;99.90;;;;;;5052065;28;20138;-44
2022/10/21 03:34:22;;;;;;;68.65;39.65;;;13.20;99.90;;;;;;5051899;28;20059;-44
2022/10/21 03:36:48;;;;;;;65.82;39.97;;;13.20;99.90;;;;;;5050819;28;20040;-44
2022/10/21 03:39:13;;;;;;;76.40;41.78;;;13.20;99.90;;;;;;5050847;28;20044;-46
2022/10/21 03:41:39;;;;;;;68.05;40.58;;;13.20;99.90;;;;;;5049422;28;20048;-45
2022/10/21 03:44:05;;;;;;;74.57;41.88;;;13.60;99.90;;;;;;5051572;28;20565;-44
2022/10/21 03:46:31;;;;;;;68.57;38.38;;;13.90;99.90;;;;;;5051751;28;20043;-45
2022/10/21 03:48:56;;;;;;;76.25;42.70;;;13.30;99.90;;;;;;5051821;28;20064;-45
2022/10/21 03:51:22;;;;;;;80.97;43.95;;;13.50;99.90;;;;;;5050185;28;20064;-44
2022/10/21 03:53:48;;;;;;;73.90;42.63;;;13.40;99.90;;;;;;5051796;28;20048;-46
2022/10/21 03:56:13;;;;;;;73.28;43.25;;;13.90;99.90;;;;;;5051514;28;20037;-45
2022/10/21 03:58:39;;;;;;;75.60;43.38;;;13.30;99.90;;;;;;5052142;28;20055;-44
2022/10/21 04:01:05;;;;;;;72.75;42.97;;;13.80;99.90;;;;;;5051993;28;20102;-45
2022/10/21 04:03:31;;;;;;;73.85;43.78;;;13.30;99.90;;;;;;5051065;28;20049;-47
2022/10/21 04:05:56;;;;;;;69.18;36.47;;;13.50;99.90;;;;;;5050024;28;20041;-45
2022/10/21 04:08:22;;;;;;;66.60;35.55;;;13.20;99.90;;;;;;5049972;28;20460;-45
2022/10/21 04:10:48;;;;;;;71.00;40.95;;;13.20;99.90;;;;;;5051340;28;20486;-44
2022/10/21 04:13:13;;;;;;;75.82;41.20;;;13.70;99.90;;;;;;5050722;28;20035;-44
2022/10/21 04:15:39;;;;;;;73.45;41.60;;;13.10;99.90;;;;;;5050721;28;20095;-44
2022/10/21 04:18:06;;;;;;;75.28;41.67;;;13.10;99.90;;;;;;5050825;28;20033;-44
2022/10/21 04:20:31;;;;;;;87.43;43.72;;;13.70;99.90;;;;;;5051273;28;20464;-44
2022/10/21 04:22:57;;;;;;;72.53;36.95;;;13.70;99.90;;;;;;5050215;28;20072;-45
2022/10/21 04:25:23;;;;;;;94.60;44.58;;;13.00;99.90;;;;;;5051665;28;20468;-45
2022/10/21 04:27:49;;;;;;;80.97;43.92;;;13.30;99.90;;;;;;5051249;28;20029;-45
2022/10/21 04:30:14;;;;;;;84.53;43.80;;;13.20;99.90;;;;;;5050924;28;20441;-45
2022/10/21 04:32:41;;;;;;;75.35;42.33;;;13.00;99.90;;;;;;5050169;28;20037;-44
2022/10/21 04:35:07;;;;;;;80.25;37.60;;;13.00;99.90;;;;;;5050526;28;20072;-44
2022/10/21 04:37:34;;;;;;;81.85;43.83;;;13.60;99.90;;;;;;5050735;28;20452;-48
2022/10/21 04:39:59;;;;;;;74.32;42.72;;;13.20;99.90;;;;;;5051031;28;20404;-46
2022/10/21 04:42:25;;;;;;;72.05;42.05;;;13.30;99.90;;;;;;5050684;28;20029;-45
2022/10/21 04:44:51;;;;;;;82.32;44.53;;;13.10;99.90;;;;;;5050263;28;20090;-45
2022/10/21 04:47:16;;;;;;;105.95;46.20;;;13.40;99.90;;;;;;5050692;28;20045;-43
2022/10/21 04:49:42;;;;;;;71.45;40.92;;;13.60;99.90;;;;;;5049235;28;20036;-45
2022/10/21 04:52:08;;;;;;;87.47;44.13;;;13.10;99.90;;;;;;5049133;28;20151;-44
2022/10/21 04:54:33;;;;;;;83.00;43.33;;;13.60;99.90;;;;;;5050626;28;20044;-44
2022/10/21 04:56:59;;;;;;;74.78;42.65;;;13.70;99.90;;;;;;5050391;28;20538;-44
2022/10/21 04:59:25;;;;;;;69.80;41.58;;;13.00;99.90;;;;;;5049741;28;20127;-44
2022/10/21 05:01:50;;;;;;;72.22;41.40;;;13.00;99.90;;;;;;5050746;28;20121;-45
2022/10/21 05:04:16;;;;;;;77.47;42.38;;;13.60;99.90;;;;;;5049505;28;20037;-45
2022/10/21 05:06:41;;;;;;;69.05;41.08;;;13.60;99.90;;;;;;5050195;28;20051;-44
2022/10/21 05:09:08;;;;;;;74.57;35.53;;;13.20;99.90;;;;;;5049079;28;20140;-45
2022/10/21 05:11:34;;;;;;;70.72;39.30;;;12.90;99.90;;;;;;5049049;28;20048;-44
2022/10/21 05:14:00;;;;;;;64.35;38.45;;;12.90;99.90;;;;;;5050801;28;20446;-48
2022/10/21 05:16:26;;;;;;;65.30;38.25;;;13.50;99.90;;;;;;5050442;28;20492;-45
2022/10/21 05:18:51;;;;;;;62.83;36.03;;;13.30;99.90;;;;;;5048826;28;20047;-44
2022/10/21 05:21:17;;;;;;;64.10;39.58;;;13.20;99.90;;;;;;5048596;28;20065;-44
2022/10/21 05:23:43;;;;;;;67.13;38.50;;;13.20;99.90;;;;;;5049952;28;20079;-44
2022/10/21 05:26:08;;;;;;;69.60;34.95;;;13.10;99.90;;;;;;5050169;28;20052;-44
2022/10/21 05:28:35;;;;;;;70.55;37.47;;;12.90;99.90;;;;;;5050278;28;20442;-45
2022/10/21 05:31:00;;;;;;;69.05;37.65;;;13.00;99.90;;;;;;5050609;28;20488;-44
2022/10/21 05:33:26;;;;;;;68.20;38.95;;;12.60;99.90;;;;;;5049506;28;20048;-46
2022/10/21 05:35:56;;;;;;;58.50;32.67;;;13.30;99.90;;;;;;5050122;28;20630;-44
2022/10/21 05:38:22;;;;;;;59.00;38.30;;;12.60;99.90;;;;;;5049754;28;20044;-46
2022/10/21 05:40:48;;;;;;;62.63;37.70;;;13.00;99.90;;;;;;5049734;28;20369;-46
2022/10/21 05:43:13;;;;;;;58.40;37.45;;;12.80;99.90;;;;;;5049401;28;20125;-43
2022/10/21 05:45:39;;;;;;;56.75;33.47;;;12.70;99.90;;;;;;5049541;28;20041;-44
2022/10/21 05:48:05;;;;;;;61.95;37.55;;;12.80;99.90;;;;;;5049706;28;20079;-44
2022/10/21 05:50:30;;;;;;;66.47;38.05;;;13.30;99.90;;;;;;5049177;28;20496;-45
2022/10/21 05:52:57;;;;;;;60.83;37.95;;;12.90;99.90;;;;;;5050017;28;20069;-44
2022/10/21 05:55:23;;;;;;;54.13;33.67;;;12.70;99.90;;;;;;5050131;28;20049;-47
2022/10/21 05:57:49;;;;;;;58.33;37.38;;;12.80;99.90;;;;;;5031527;28;20114;-46
2022/10/21 06:00:14;;;;;;;56.33;32.78;;;13.00;99.90;;;;;;5049207;28;20041;-47
2022/10/21 06:02:40;;;;;;;58.90;36.75;;;12.80;99.90;;;;;;5046440;28;20143;-45
2022/10/21 06:05:06;;;;;;;61.80;37.83;;;13.00;99.90;;;;;;5047807;28;20396;-49
2022/10/21 06:07:32;;;;;;;53.95;32.22;;;13.30;99.90;;;;;;5049280;28;20041;-45
2022/10/21 06:09:58;;;;;;;62.92;36.60;;;13.10;99.90;;;;;;5047729;28;20477;-44
2022/10/21 06:12:23;;;;;;;60.85;36.58;;;13.40;99.90;;;;;;5048838;28;20037;-45
2022/10/21 06:14:49;;;;;;;60.85;32.63;;;12.90;99.90;;;;;;5048482;28;20055;-46
2022/10/21 06:17:15;;;;;;;57.67;36.88;;;13.20;99.90;;;;;;5048874;28;20033;-45
2022/10/21 06:19:40;;;;;;;56.40;32.33;;;13.00;99.90;;;;;;5047972;28;20033;-44
2022/10/21 06:22:07;;;;;;;52.90;30.92;;;13.00;99.90;;;;;;5048599;28;20037;-44
2022/10/21 06:24:32;;;;;;;53.90;35.10;;;12.80;99.90;;;;;;5048430;28;20037;-44
2022/10/21 06:26:58;;;;;;;53.42;34.72;;;13.40;99.90;;;;;;5048034;28;20033;-45
2022/10/21 06:29:24;;;;;;;54.40;35.38;;;12.80;99.90;;;;;;5048282;28;20033;-46
2022/10/21 06:31:49;;;;;;;59.90;36.03;;;12.70;99.90;;;;;;5047929;28;20037;-47
2022/10/21 06:34:15;;;;;;;51.05;30.88;;;12.70;99.90;;;;;;5043148;28;20115;-49
2022/10/21 06:36:41;;;;;;;47.40;29.27;;;13.30;99.90;;;;;;5045247;28;20041;-46
2022/10/21 06:39:07;;;;;;;52.42;30.27;;;13.00;99.90;;;;;;5046160;28;20041;-43
2022/10/21 06:41:33;;;;;;;55.58;35.78;;;13.20;99.90;;;;;;5049036;28;20067;-45
2022/10/21 06:43:59;;;;;;;53.20;34.70;;;12.60;99.90;;;;;;5052184;28;20037;-46
2022/10/21 06:46:24;;;;;;;56.28;35.28;;;12.80;99.90;;;;;;5050962;28;20056;-45
2022/10/21 06:48:50;;;;;;;53.47;34.90;;;12.60;99.90;;;;;;5052157;28;20032;-46
2022/10/21 06:51:19;;;;;;;57.15;35.78;;;12.90;99.90;;;;;;5052399;28;20404;-46
2022/10/21 06:53:46;;;;;;;56.85;35.95;;;12.50;99.90;;;;;;5045180;28;20044;-46
2022/10/21 06:56:17;;;;;;;53.53;31.33;;;12.70;99.90;;;;;;5051033;28;20106;-44
2022/10/21 06:58:47;;;;;;;58.42;35.95;;;13.00;99.90;;;;;;5051264;28;20049;-46
2022/10/21 07:01:18;;;;;;;54.97;31.90;;;12.40;99.90;;;;;;5047865;28;20044;-44
2022/10/21 07:03:43;;;;;;;55.75;31.67;;;12.50;99.90;;;;;;5037266;28;20040;-47
2022/10/21 07:06:10;;;;;;;67.20;33.20;;;13.00;99.90;;;;;;5037902;28;20116;-45
2022/10/21 07:08:39;;;;;;;65.07;38.45;;;12.80;99.90;;;;;;5036743;28;20053;-44
2022/10/21 07:11:06;;;;;;;61.60;30.95;;;12.40;99.90;;;;;;5037805;28;20739;-44
2022/10/21 07:13:33;;;;;;;53.88;31.27;;;12.30;99.90;;;;;;5038340;28;20029;-46
2022/10/21 07:16:12;;;;;;;55.67;32.00;;;12.60;99.90;;;;;;5038238;28;20029;-46
2022/10/21 07:18:38;;;;;;;56.45;31.73;;;13.00;99.90;;;;;;5035921;28;20443;-44
2022/10/21 07:21:06;;;;;;;60.65;38.30;;;12.80;99.90;;;;;;5034949;28;20147;-45
2022/10/21 07:23:32;;;;;;;55.20;31.65;;;13.00;99.90;;;;;;5035686;28;20617;-44
2022/10/21 07:25:58;;;;;;;58.50;31.77;;;12.60;99.90;;;;;;5039097;28;20112;-45
2022/10/21 07:28:24;;;;;;;54.25;31.73;;;12.90;99.90;;;;;;5041205;28;20396;-44
2022/10/21 07:30:49;;;;;;;58.40;35.75;;;12.50;99.90;;;;;;5040886;28;20033;-45
2022/10/21 07:33:15;;;;;;;53.75;31.23;;;12.40;99.90;;;;;;5038739;28;20049;-44
2022/10/21 07:35:40;;;;;;;60.72;36.45;;;12.60;99.90;;;;;;5038961;28;20041;-46
2022/10/21 07:38:06;;;;;;;60.42;36.50;;;13.00;99.90;;;;;;5039383;28;20076;-43
2022/10/21 07:40:37;;;;;;;60.72;31.92;;;12.50;99.90;;;;;;5039412;28;20041;-44
2022/10/21 07:43:03;;;;;;;52.60;30.42;;;12.50;99.90;;;;;;5037101;28;20574;-45
2022/10/21 07:45:30;;;;;;;56.10;35.92;;;12.70;99.90;;;;;;5039438;28;20493;-45
2022/10/21 07:47:55;;;;;;;57.85;35.15;;;13.10;99.90;;;;;;5040219;28;20123;-46
2022/10/21 07:50:21;;;;;;;63.17;37.08;;;12.80;99.90;;;;;;5041776;28;20038;-45
2022/10/21 07:52:47;;;;;;;54.67;35.20;;;12.90;99.90;;;;;;5040122;28;20051;-44
2022/10/21 07:55:14;;;;;;;57.08;32.33;;;13.20;99.90;;;;;;5042316;28;20472;-44
2022/10/21 07:57:40;;;;;;;53.80;35.80;;;13.50;99.90;;;;;;5041242;28;20053;-44
2022/10/21 08:00:08;;;;;;;54.42;34.83;;;13.20;99.90;;;;;;5041638;28;20037;-46
2022/10/21 08:02:35;;;;;;;55.95;31.88;;;12.90;99.90;;;;;;5040172;28;20048;-45
2022/10/21 08:05:01;;;;;;;48.13;33.10;;;13.60;99.90;;;;;;5039383;28;20091;-47
2022/10/21 08:07:28;;;;;;;48.60;32.85;;;13.10;99.90;;;;;;5042658;28;20512;-48
2022/10/21 08:09:54;;;;;;;49.53;32.42;;;13.80;99.90;;;;;;5038110;28;20033;-45
2022/10/21 08:12:19;;;;;;;50.25;30.02;;;13.20;99.90;;;;;;5041539;28;20498;-44
2022/10/21 08:14:45;;;;;;;44.47;31.80;;;13.30;99.90;;;;;;5039364;28;20037;-45
2022/10/21 08:17:10;;;;;;;41.70;30.85;;;13.80;99.90;;;;;;5042418;28;20036;-45
2022/10/21 08:19:36;;;;;;;41.28;29.02;;;13.40;99.90;;;;;;5041940;28;20039;-44
2022/10/21 08:22:02;;;;;;;39.58;28.15;;;13.50;99.90;;;;;;5041413;28;20118;-46
2022/10/21 08:24:28;;;;;;;41.17;27.65;;;14.20;99.90;;;;;;5040877;28;20144;-44
2022/10/21 08:26:54;;;;;;;37.63;26.67;;;13.80;99.90;;;;;;5042246;28;20425;-44
2022/10/21 08:29:19;;;;;;;37.22;26.10;;;13.80;99.90;;;;;;5041005;28;20518;-43
2022/10/21 08:31:45;;;;;;;32.05;23.42;;;14.30;99.90;;;;;;5042339;28;20064;-46
2022/10/21 08:34:11;;;;;;;35.58;25.33;;;14.30;99.90;;;;;;5040095;28;20052;-44
2022/10/21 08:36:37;;;;;;;35.15;25.27;;;13.80;99.90;;;;;;5042052;28;20395;-46
2022/10/21 08:39:04;;;;;;;33.72;24.42;;;14.40;99.90;;;;;;5041334;28;20045;-48
2022/10/21 08:41:30;;;;;;;34.70;25.38;;;13.80;99.90;;;;;;5040811;28;20037;-44
2022/10/21 08:43:59;;;;;;;34.65;25.63;;;14.50;99.90;;;;;;5041710;28;20043;-46
2022/10/21 08:46:36;;;;;;;31.98;23.67;;;14.00;99.90;;;;;;5041492;28;20053;-45
2022/10/21 08:49:20;;;;;;;30.30;23.27;;;13.90;99.90;;;;;;5041251;28;20033;-45
2022/10/21 08:51:52;;;;;;;31.83;21.95;;;14.00;99.90;;;;;;5041451;28;20545;-44
2022/10/21 08:54:24;;;;;;;26.45;21.10;;;14.70;99.90;;;;;;5041347;28;20067;-44
2022/10/21 08:56:55;;;;;;;26.83;20.38;;;14.10;99.90;;;;;;5036690;28;20041;-47
2022/10/21 08:59:24;;;;;;;26.27;20.35;;;14.80;99.90;;;;;;5036360;28;20061;-44
2022/10/21 09:02:11;;;;;;;25.67;21.20;;;14.90;99.90;;;;;;5036677;28;20040;-44
2022/10/21 09:05:15;;;;;;;23.48;19.08;;;14.70;99.90;;;;;;5038898;28;20480;-44
2022/10/21 09:08:10;;;;;;;25.60;20.10;;;14.80;99.90;;;;;;5031073;28;20056;-45
2022/10/21 09:10:41;;;;;;;26.13;18.77;;;14.90;99.90;;;;;;5040182;28;20041;-44
2022/10/21 09:13:36;;;;;;;23.38;18.88;;;14.90;99.90;;;;;;5040581;28;20041;-44
2022/10/21 09:16:23;;;;;;;24.77;19.23;;;14.90;99.90;;;;;;5041011;28;20126;-46
2022/10/21 09:19:18;;;;;;;26.40;18.80;;;14.80;99.90;;;;;;5039037;28;20244;-45
2022/10/21 09:22:02;;;;;;;22.65;18.15;;;15.00;99.90;;;;;;5039035;28;20112;-49
2022/10/21 09:24:28;;;;;;;23.83;18.33;;;14.60;99.90;;;;;;5038628;28;20053;-44
2022/10/21 09:26:55;;;;;;;26.00;17.63;;;15.00;99.90;;;;;;5038419;28;20477;-46
2022/10/21 09:29:36;;;;;;;25.02;17.52;;;14.80;99.90;;;;;;5039320;28;20041;-45
2022/10/21 09:32:18;;;;;;;25.75;17.83;;;14.60;99.90;;;;;;5035665;28;20058;-46
2022/10/21 09:35:02;;;;;;;24.15;17.75;;;14.70;99.90;;;;;;5037170;28;20041;-45
2022/10/21 09:37:47;;;;;;;26.13;18.55;;;15.00;99.90;;;;;;5039148;28;20032;-46
2022/10/21 09:40:27;;;;;;;26.30;17.90;;;15.20;99.90;;;;;;5036944;28;20045;-45
2022/10/21 09:42:57;;;;;;;24.98;16.25;;;14.70;99.90;;;;;;5035912;28;20033;-47
2022/10/21 09:45:37;;;;;;;21.77;16.30;;;15.90;99.90;;;;;;5036121;28;20064;-46
2022/10/21 09:48:03;;;;;;;24.50;17.33;;;14.80;99.90;;;;;;5036599;28;20503;-45
2022/10/21 09:50:30;;;;;;;23.77;16.48;;;15.40;99.90;;;;;;5037468;28;20029;-44
2022/10/21 09:53:08;;;;;;;21.35;15.90;;;15.10;99.90;;;;;;5033352;28;20073;-45
2022/10/21 09:55:36;;;;;;;20.15;14.85;;;15.40;99.90;;;;;;5034248;28;20091;-44
2022/10/21 09:58:03;;;;;;;20.13;14.77;;;14.90;99.90;;;;;;5038345;28;20106;-46
2022/10/21 10:00:43;;;;;;;21.75;15.23;;;15.40;99.90;;;;;;5038219;28;20037;-45
2022/10/21 10:03:09;;;;;;;22.80;15.85;;;15.00;99.90;;;;;;5039874;28;20037;-44
2022/10/21 10:05:43;;;;;;;21.30;14.95;;;15.10;99.90;;;;;;5038093;28;20107;-44
2022/10/21 10:08:29;;;;;;;16.75;14.38;;;15.60;99.90;;;;;;5038535;28;20029;-45
2022/10/21 10:11:01;;;;;;;19.40;13.93;;;15.10;99.90;;;;;;5038556;28;20044;-45
2022/10/21 10:13:28;;;;;;;20.27;14.00;;;15.10;99.90;;;;;;5033711;28;20033;-48
2022/10/21 10:15:53;;;;;;;23.98;13.93;;;15.50;99.90;;;;;;5033769;28;20045;-45
2022/10/21 10:18:21;;;;;;;20.65;15.07;;;15.20;99.90;;;;;;5035955;28;20039;-44
2022/10/21 10:21:09;;;;;;;20.88;14.95;;;15.70;99.90;;;;;;5038077;28;20132;-44
2022/10/21 10:23:53;;;;;;;21.13;15.57;;;15.80;99.90;;;;;;5035934;28;20033;-45
2022/10/21 10:26:41;;;;;;;21.23;14.43;;;15.80;99.90;;;;;;5036106;28;21070;-44
2022/10/21 10:29:21;;;;;;;20.25;12.98;;;15.80;99.90;;;;;;5037704;28;20036;-45
2022/10/21 10:31:49;;;;;;;17.58;12.07;;;15.50;99.90;;;;;;5028429;28;20041;-45
2022/10/21 10:34:29;;;;;;;16.63;11.93;;;15.70;99.90;;;;;;5027793;28;20121;-46
2022/10/21 10:37:03;;;;;;;18.15;11.68;;;15.70;99.90;;;;;;5039277;28;20399;-45
2022/10/21 10:39:32;;;;;;;15.20;11.40;;;15.50;99.90;;;;;;5029546;28;20468;-46
2022/10/21 10:41:58;;;;;;;15.85;11.88;;;16.00;99.90;;;;;;5033728;28;20409;-45
2022/10/21 10:44:37;;;;;;;18.20;10.90;;;16.00;99.90;;;;;;5028338;28;124155;-45
2022/10/21 10:47:05;;;;;;;15.00;11.55;;;15.70;99.90;;;;;;5035252;28;20032;-44
2022/10/21 10:49:39;;;;;;;17.73;11.93;;;15.80;99.90;;;;;;5035886;28;20067;-49
2022/10/21 10:52:09;;;;;;;15.00;11.37;;;15.80;99.90;;;;;;5036192;28;20087;-44
2022/10/21 10:54:36;;;;;;;17.25;11.13;;;16.10;99.90;;;;;;5037068;28;20043;-46
2022/10/21 10:57:12;;;;;;;15.38;11.35;;;15.90;99.90;;;;;;5036779;28;20041;-44
2022/10/21 10:59:45;;;;;;;15.85;10.70;;;16.20;99.90;;;;;;5037297;28;20044;-44
2022/10/21 11:02:11;;;;;;;19.45;11.32;;;15.70;99.90;;;;;;5037593;28;20061;-47
2022/10/21 11:04:46;;;;;;;14.60;10.55;;;15.80;99.90;;;;;;5036323;28;20126;-47
2022/10/21 11:07:24;;;;;;;17.58;10.55;;;16.20;99.90;;;;;;5037930;28;20041;-46
2022/10/21 11:09:55;;;;;;;16.70;10.50;;;16.10;99.90;;;;;;5035921;28;20033;-45
2022/10/21 11:12:25;;;;;;;14.05;10.40;;;16.20;99.90;;;;;;5035252;28;20079;-45
2022/10/21 11:14:53;;;;;;;16.27;10.63;;;15.90;99.90;;;;;;5035076;28;20620;-45
2022/10/21 11:17:28;;;;;;;16.48;10.40;;;15.90;99.90;;;;;;5036432;28;20037;-44
2022/10/21 11:20:05;;;;;;;14.48;10.30;;;15.90;99.90;;;;;;5036449;28;20049;-45
2022/10/21 11:22:36;;;;;;;14.40;10.13;;;16.10;99.90;;;;;;5036072;28;20211;-44
2022/10/21 11:25:11;;;;;;;12.88;10.25;;;16.30;99.90;;;;;;5039401;28;20045;-44
2022/10/21 11:27:36;;;;;;;16.02;10.38;;;16.30;99.90;;;;;;5038292;28;20037;-44
2022/10/21 11:30:14;;;;;;;15.60;10.30;;;16.40;99.90;;;;;;5040179;28;20080;-46
2022/10/21 11:33:02;;;;;;;15.60;10.75;;;16.00;99.90;;;;;;5039506;28;20032;-46
2022/10/21 11:35:59;;;;;;;14.93;10.35;;;16.10;99.90;;;;;;5041385;28;20524;-46
2022/10/21 11:38:40;;;;;;;13.23;10.05;;;16.10;99.90;;;;;;5039740;28;20112;-47
2022/10/21 11:41:29;;;;;;;18.70;10.50;;;16.10;99.90;;;;;;5021416;28;20486;-44
2022/10/21 11:44:14;;;;;;;17.80;10.20;;;16.50;99.90;;;;;;5039902;28;20037;-44
2022/10/21 11:46:47;;;;;;;14.82;10.52;;;16.10;99.90;;;;;;5040847;28;20376;-45
2022/10/21 11:49:50;;;;;;;14.98;10.52;;;16.40;99.90;;;;;;5038215;28;20033;-44
2022/10/21 11:52:18;;;;;;;15.75;9.65;;;16.20;99.90;;;;;;5041091;28;20049;-45
2022/10/21 11:55:11;;;;;;;14.45;9.68;;;16.50;99.90;;;;;;5040063;28;20673;-47
2022/10/21 11:57:36;;;;;;;15.30;10.68;;;16.50;99.90;;;;;;5039450;28;20052;-44
2022/10/21 12:00:14;;;;;;;16.27;10.07;;;16.20;99.90;;;;;;5040144;28;20049;-44
2022/10/21 12:02:45;;;;;;;13.25;10.48;;;16.20;99.90;;;;;;5040275;28;20082;-46
2022/10/21 12:05:14;;;;;;;15.65;10.10;;;16.50;99.90;;;;;;5040100;28;20033;-45
2022/10/21 12:08:04;;;;;;;16.73;10.43;;;16.60;99.90;;;;;;5037227;28;20029;-46
2022/10/21 12:11:04;;;;;;;15.63;10.18;;;16.50;99.90;;;;;;5040294;28;20381;-46
2022/10/21 12:13:40;;;;;;;14.43;10.35;;;16.20;99.90;;;;;;5041006;28;20041;-44
2022/10/21 12:16:16;;;;;;;14.63;9.82;;;16.20;99.90;;;;;;5034211;28;20065;-44
2022/10/21 12:19:03;;;;;;;14.75;10.30;;;16.70;99.90;;;;;;5036462;28;20052;-46
2022/10/21 12:21:34;;;;;;;13.55;9.90;;;16.20;99.90;;;;;;5037820;28;20817;-47
2022/10/21 12:24:19;;;;;;;17.42;10.18;;;16.40;99.90;;;;;;5047668;28;20140;-46
2022/10/21 12:26:55;;;;;;;16.42;9.77;;;16.50;99.90;;;;;;5050951;28;20037;-46
2022/10/21 12:29:46;;;;;;;15.25;10.38;;;16.20;99.90;;;;;;5050017;28;20102;-44
2022/10/21 12:32:21;;;;;;;12.65;9.80;;;16.40;99.90;;;;;;5048561;28;20468;-47
2022/10/21 12:34:47;;;;;;;16.27;10.02;;;16.30;99.90;;;;;;5049539;28;20048;-45
2022/10/21 12:37:43;;;;;;;18.05;10.27;;;16.60;99.90;;;;;;5050780;28;20425;-46
2022/10/21 12:40:36;;;;;;;14.13;9.73;;;16.40;99.90;;;;;;5050471;28;20036;-46
2022/10/21 12:43:19;;;;;;;13.98;9.52;;;16.60;99.90;;;;;;5043627;28;20102;-46
2022/10/21 12:45:46;;;;;;;14.50;10.10;;;16.80;99.90;;;;;;5050481;28;20048;-46